CLVO2: Canadian River, Calvin, OKla

Data processed at Sun Aug 09 2020 23:31


All information presented herein is the property of the government of the United States of America and may be revised or deleted at any time without prior notice.
Dissemination of this information without the expressed written consent of the Public Affairs Office, Tulsa District U.S. Army Corps of Engineers is strictly prohibited.
These data are gathered electronically and, as presented, have not undergone any form of quality control. These data are not guaranteed to be valid or correct.
Go to home page.
Go to station list.
Go to home page.

Upstream stations:

Downstream station:
Previous Day
Next Day
Current Day
    
SHEF ID:       CLVO2     Canadian River at Calvin, OK
STATION TYPE:  
Regulating: Stage =    17.00, Flow =    48538

               PRECIP     STAGE  RIV-FLOW  BAT-LOAD
                   in        ft       cfs      volt
              Ccp-Rev   Ccp-Rev   Ccp-Rev   Ccp-Rev
(US/Central)
08/09 00:00      0.00      7.29       825     12.89
08/09 01:00      0.00      7.26       799     12.89
08/09 02:00      0.00      7.24       781     12.89
08/09 03:00      0.00      7.22       765     12.89
08/09 04:00      0.00      7.21       756     12.81
08/09 05:00      0.00      7.20       748     12.81
08/09 06:00      0.00      7.18       732     12.81
08/09 07:00      0.00      7.17       724     12.73
08/09 08:00      0.00      7.16       716     12.73
08/09 09:00      0.00      7.16       716     13.05
08/09 10:00      0.00      7.15       708     13.44
08/09 11:00      0.00      7.14       700     13.68
08/09 12:00      0.00      7.13       693     14.00
08/09 13:00      0.00      7.12       685     13.92
08/09 14:00      0.00      7.12       685     13.92
08/09 15:00      0.00      7.10       670     13.84
08/09 16:00      0.00      7.10       670     13.29
08/09 17:00      0.00      7.09       663     13.29
08/09 18:00      0.00      7.09       663     13.21
08/09 19:00      0.00      7.08       655     13.21
08/09 20:00      0.00      7.07       648     13.13
08/09 21:00      0.00      7.07       648     13.05
08/09 22:00      0.00      7.06       641     12.97
08/09 23:00      ----      ----      ----      ----